createdAt,value
2023-05-25T00:02:15.364Z,0.20
2023-05-25T00:04:42.172Z,0.20
2023-05-25T00:07:08.760Z,0.30
2023-05-25T00:09:35.590Z,0.30
2023-05-25T00:12:02.812Z,0.30
2023-05-25T00:14:31.223Z,0.22
2023-05-25T00:16:58.394Z,0.30
2023-05-25T00:19:25.243Z,0.20
2023-05-25T00:21:52.392Z,0.20
2023-05-25T00:24:18.816Z,0.20
2023-05-25T00:26:45.257Z,0.30
2023-05-25T00:29:12.619Z,0.30
2023-05-25T00:31:39.230Z,0.40
2023-05-25T00:34:05.787Z,0.73
2023-05-25T00:36:32.226Z,0.60
2023-05-25T00:38:58.686Z,0.40
2023-05-25T00:41:26.268Z,0.40
2023-05-25T00:43:52.655Z,0.32
2023-05-25T00:46:19.413Z,0.30
2023-05-25T00:48:45.932Z,0.20
2023-05-25T00:51:13.862Z,0.20
2023-05-25T00:53:40.293Z,0.20
2023-05-25T00:56:14.977Z,0.20
2023-05-25T00:58:42.610Z,0.30
2023-05-25T01:01:13.593Z,0.30
2023-05-25T01:03:42.935Z,0.20
2023-05-25T01:06:11.641Z,0.30
2023-05-25T01:08:38.491Z,0.20
2023-05-25T01:11:06.453Z,0.20
2023-05-25T01:13:34.500Z,0.20
2023-05-25T01:16:00.977Z,0.20
2023-05-25T01:18:28.302Z,0.17
2023-05-25T01:21:18.165Z,0.10
2023-05-25T01:23:47.950Z,0.20
2023-05-25T01:26:16.446Z,0.20
2023-05-25T01:28:46.660Z,0.25
2023-05-25T01:31:14.732Z,0.20
2023-05-25T01:33:42.555Z,0.20
2023-05-25T01:36:09.164Z,0.20
2023-05-25T01:38:36.939Z,0.20
2023-05-25T01:41:03.301Z,0.20
2023-05-25T01:43:29.784Z,0.30
2023-05-25T01:46:00.765Z,0.20
2023-05-25T01:48:53.264Z,0.20
2023-05-25T01:51:25.757Z,0.20
2023-05-25T01:54:00.502Z,0.20
2023-05-25T01:56:28.613Z,0.20
2023-05-25T01:58:55.835Z,0.30
2023-05-25T02:01:22.688Z,0.20
2023-05-25T02:03:49.379Z,0.30
2023-05-25T02:06:16.478Z,0.22
2023-05-25T02:08:44.576Z,0.30
2023-05-25T02:11:12.705Z,0.20
2023-05-25T02:13:39.139Z,0.43
2023-05-25T02:16:05.780Z,0.20
2023-05-25T02:18:32.721Z,0.13
2023-05-25T02:20:59.137Z,0.20
2023-05-25T02:23:25.624Z,0.20
2023-05-25T02:25:52.192Z,0.20
2023-05-25T02:28:18.857Z,0.20
2023-05-25T02:30:45.430Z,0.20
2023-05-25T02:33:11.824Z,0.20
2023-05-25T02:35:38.556Z,0.30
2023-05-25T02:38:04.994Z,0.20
2023-05-25T02:40:31.382Z,0.22
2023-05-25T02:42:57.809Z,0.20
2023-05-25T02:45:24.296Z,0.40
2023-05-25T02:47:50.992Z,0.32
2023-05-25T02:50:17.412Z,0.40
2023-05-25T02:52:43.742Z,0.60
2023-05-25T02:55:10.592Z,0.50
2023-05-25T02:57:39.745Z,0.98
2023-05-25T03:00:11.838Z,0.98
2023-05-25T03:05:05.008Z,0.47
2023-05-25T03:07:31.789Z,0.68
2023-05-25T03:09:59.401Z,0.40
2023-05-25T03:12:25.929Z,0.40
2023-05-25T03:14:52.419Z,0.20
2023-05-25T03:17:18.925Z,0.40
2023-05-25T03:19:45.652Z,0.20
2023-05-25T03:22:12.196Z,0.40
2023-05-25T03:24:41.518Z,0.20
2023-05-25T03:27:08.614Z,0.30
2023-05-25T03:29:34.981Z,0.20
2023-05-25T03:32:01.560Z,0.20
2023-05-25T03:34:28.991Z,0.20
2023-05-25T03:36:55.594Z,0.30
2023-05-25T03:39:22.339Z,0.40
2023-05-25T03:41:48.776Z,0.40
2023-05-25T03:44:15.152Z,0.30
2023-05-25T03:46:41.714Z,0.38
2023-05-25T03:49:13.534Z,0.60
2023-05-25T03:51:43.238Z,0.30
2023-05-25T03:54:09.700Z,0.60
2023-05-25T03:56:36.267Z,0.50
2023-05-25T03:59:02.806Z,0.40
2023-05-25T04:01:30.106Z,0.30
2023-05-25T04:03:57.147Z,0.50
2023-05-25T04:06:25.420Z,0.40
2023-05-25T04:08:52.321Z,0.40
2023-05-25T04:11:19.311Z,0.20
2023-05-25T04:13:46.203Z,0.20
2023-05-25T04:16:13.263Z,0.20
2023-05-25T04:18:40.508Z,0.20
2023-05-25T04:21:06.864Z,0.10
2023-05-25T04:23:34.079Z,0.10
2023-05-25T04:26:00.805Z,0.20
2023-05-25T04:28:28.418Z,0.10
2023-05-25T04:30:57.340Z,0.20
2023-05-25T04:33:24.687Z,0.20
2023-05-25T04:35:51.206Z,0.30
2023-05-25T04:38:20.530Z,0.20
2023-05-25T04:40:47.129Z,0.52
2023-05-25T04:43:13.795Z,0.10
2023-05-25T04:45:40.379Z,0.20
2023-05-25T04:48:07.320Z,0.25
2023-05-25T04:50:33.930Z,0.20
2023-05-25T04:53:00.746Z,0.20
2023-05-25T04:55:27.125Z,0.10
2023-05-25T04:57:54.746Z,0.15
2023-05-25T05:00:22.137Z,0.17
2023-05-25T05:02:48.823Z,0.10
2023-05-25T05:05:15.472Z,0.30
2023-05-25T05:07:42.000Z,0.17
2023-05-25T05:10:08.939Z,0.10
2023-05-25T05:12:35.652Z,0.08
2023-05-25T05:15:02.076Z,0.13
2023-05-25T05:17:30.635Z,0.10
2023-05-25T05:19:57.482Z,0.10
2023-05-25T05:22:23.986Z,0.10
2023-05-25T05:24:51.033Z,0.30
2023-05-25T05:27:17.498Z,0.20
2023-05-25T05:29:43.844Z,0.20
2023-05-25T05:32:10.315Z,0.10
2023-05-25T05:34:37.516Z,0.10
2023-05-25T05:37:03.952Z,0.10
2023-05-25T05:39:30.372Z,0.10
2023-05-25T05:41:56.832Z,0.20
2023-05-25T05:44:26.026Z,0.30
2023-05-25T05:47:00.263Z,0.20
2023-05-25T05:49:27.795Z,0.10
2023-05-25T05:51:54.209Z,0.20
2023-05-25T05:54:20.621Z,0.20
2023-05-25T05:56:47.016Z,0.30
2023-05-25T05:59:13.348Z,0.55
2023-05-25T06:01:39.942Z,0.40
2023-05-25T06:04:06.615Z,0.35
2023-05-25T06:06:34.932Z,1.20
2023-05-25T06:09:03.564Z,0.98
2023-05-25T06:11:29.972Z,0.90
2023-05-25T06:13:56.308Z,0.98
2023-05-25T06:16:22.769Z,0.70
2023-05-25T06:18:49.191Z,0.80
2023-05-25T06:21:15.598Z,1.10
2023-05-25T06:23:42.088Z,0.70
2023-05-25T06:26:08.431Z,0.60
2023-05-25T06:28:34.973Z,0.40
2023-05-25T06:31:01.305Z,0.77
2023-05-25T06:33:27.727Z,1.52
2023-05-25T06:35:58.279Z,0.82
2023-05-25T06:38:24.768Z,0.80
2023-05-25T06:40:51.209Z,0.70
2023-05-25T06:43:17.576Z,0.50
2023-05-25T06:45:44.321Z,0.60
2023-05-25T06:48:11.510Z,0.35
2023-05-25T06:50:37.975Z,0.60
2023-05-25T06:53:04.332Z,0.57
2023-05-25T06:55:30.951Z,0.45
2023-05-25T06:57:57.935Z,0.95
2023-05-25T07:00:24.359Z,1.50
2023-05-25T07:02:50.846Z,1.10
2023-05-25T07:05:17.392Z,0.80
2023-05-25T07:07:43.798Z,1.17
2023-05-25T07:10:10.336Z,0.80
2023-05-25T07:12:36.753Z,1.65
2023-05-25T07:15:03.223Z,2.10
2023-05-25T07:17:31.481Z,1.60
2023-05-25T07:19:58.041Z,1.35
2023-05-25T07:22:25.280Z,1.77
2023-05-25T07:24:51.732Z,1.25
2023-05-25T07:27:19.604Z,1.83
2023-05-25T07:29:46.053Z,1.35
2023-05-25T07:32:12.554Z,1.38
2023-05-25T07:34:39.521Z,1.27
2023-05-25T07:37:06.452Z,1.60
2023-05-25T07:39:32.944Z,1.00
2023-05-25T07:41:59.317Z,1.30
2023-05-25T07:44:25.703Z,1.70
2023-05-25T07:46:52.176Z,1.50
2023-05-25T07:49:18.599Z,1.42
2023-05-25T07:51:45.763Z,1.35
2023-05-25T07:54:12.399Z,1.50
2023-05-25T07:56:39.011Z,1.30
2023-05-25T07:59:06.044Z,1.98
2023-05-25T08:01:32.381Z,1.90
2023-05-25T08:03:58.848Z,1.85
2023-05-25T08:06:25.374Z,1.52
2023-05-25T08:08:51.978Z,1.80
2023-05-25T08:11:22.864Z,3.88
2023-05-25T08:13:49.199Z,1.40
2023-05-25T08:16:16.957Z,2.15
2023-05-25T08:18:46.925Z,1.00
2023-05-25T08:21:13.771Z,1.48
2023-05-25T08:23:42.443Z,1.10
2023-05-25T08:26:28.596Z,1.25
2023-05-25T08:28:56.595Z,0.80
2023-05-25T08:31:23.001Z,1.63
2023-05-25T08:33:49.404Z,1.23
2023-05-25T08:36:16.121Z,1.60
2023-05-25T08:38:42.543Z,1.50
2023-05-25T08:41:09.199Z,1.63
2023-05-25T08:43:35.742Z,1.30
2023-05-25T08:46:06.138Z,0.90
2023-05-25T08:48:41.775Z,0.75
2023-05-25T08:51:11.065Z,1.10
2023-05-25T08:53:38.695Z,1.50
2023-05-25T08:56:10.267Z,0.80
2023-05-25T08:58:40.967Z,0.70
2023-05-25T09:01:08.302Z,0.60
2023-05-25T09:03:35.075Z,1.35
2023-05-25T09:06:01.949Z,1.30
2023-05-25T09:08:28.609Z,1.35
2023-05-25T09:10:56.476Z,1.00
2023-05-25T09:13:23.303Z,1.42
2023-05-25T09:15:50.594Z,0.93
2023-05-25T09:18:17.143Z,0.70
2023-05-25T09:20:46.728Z,1.10
2023-05-25T09:23:14.414Z,1.15
2023-05-25T09:25:41.137Z,1.17
2023-05-25T09:28:25.346Z,1.20
2023-05-25T09:30:52.513Z,1.10
2023-05-25T09:33:19.524Z,0.85
2023-05-25T09:35:46.318Z,0.70
2023-05-25T09:38:18.947Z,0.60
2023-05-25T09:40:46.090Z,1.00
2023-05-25T09:43:17.234Z,1.10
2023-05-25T09:45:48.972Z,0.80
2023-05-25T09:48:15.647Z,1.02
2023-05-25T09:50:42.659Z,0.80
2023-05-25T09:53:09.165Z,0.60
2023-05-25T09:55:51.462Z,0.80
2023-05-25T09:58:19.300Z,1.05
2023-05-25T10:00:46.395Z,1.40
2023-05-25T10:03:15.336Z,1.10
2023-05-25T10:05:41.954Z,0.90
2023-05-25T10:08:08.773Z,0.77
2023-05-25T10:10:36.162Z,0.82
2023-05-25T10:13:03.763Z,0.82
2023-05-25T10:15:30.905Z,1.00
2023-05-25T10:17:58.528Z,0.70
2023-05-25T10:20:29.286Z,0.68
2023-05-25T10:23:01.122Z,0.80
2023-05-25T10:25:47.337Z,0.73
2023-05-25T10:28:28.989Z,0.90
2023-05-25T10:30:56.783Z,1.00
2023-05-25T10:33:23.805Z,1.45
2023-05-25T10:36:02.234Z,1.55
2023-05-25T10:38:37.338Z,1.40
2023-05-25T10:41:04.402Z,1.00
2023-05-25T10:43:30.890Z,1.05
2023-05-25T10:45:57.609Z,0.80
2023-05-25T10:48:24.667Z,2.40
2023-05-25T10:50:51.605Z,1.50
2023-05-25T10:53:21.049Z,1.20
2023-05-25T10:55:53.334Z,1.30
2023-05-25T10:58:21.683Z,1.00
2023-05-25T11:01:01.867Z,1.05
2023-05-25T11:03:46.961Z,1.00
2023-05-25T11:06:21.595Z,0.77
2023-05-25T11:08:48.759Z,0.90
2023-05-25T11:11:15.145Z,0.68
2023-05-25T11:13:45.281Z,1.60
2023-05-25T11:16:17.804Z,0.90
2023-05-25T11:18:54.742Z,0.80
2023-05-25T11:21:24.268Z,0.70
2023-05-25T11:23:58.094Z,0.85
2023-05-25T11:26:26.295Z,0.90
2023-05-25T11:28:53.584Z,0.55
2023-05-25T11:31:21.005Z,0.50
2023-05-25T11:33:48.350Z,0.80
2023-05-25T11:36:17.387Z,1.13
2023-05-25T11:38:52.881Z,0.63
2023-05-25T11:41:29.278Z,1.05
2023-05-25T11:43:56.386Z,0.82
2023-05-25T11:46:22.765Z,0.70
2023-05-25T11:48:52.958Z,0.90
2023-05-25T11:51:23.606Z,1.73
2023-05-25T11:53:50.133Z,1.87
2023-05-25T11:56:30.620Z,0.95
2023-05-25T11:59:01.416Z,1.20
2023-05-25T12:01:27.840Z,1.00
2023-05-25T12:03:57.002Z,1.55
2023-05-25T12:06:25.541Z,1.20
2023-05-25T12:08:52.386Z,1.23
2023-05-25T12:11:27.023Z,0.70
2023-05-25T12:13:53.717Z,1.17
2023-05-25T12:16:20.374Z,1.20
2023-05-25T12:18:46.996Z,0.82
2023-05-25T12:21:13.505Z,0.77
2023-05-25T12:23:39.912Z,0.80
2023-05-25T12:26:09.019Z,0.50
2023-05-25T12:28:35.543Z,0.70
2023-05-25T12:31:24.265Z,0.70
2023-05-25T12:34:06.921Z,0.93
2023-05-25T12:36:40.120Z,0.40
2023-05-25T12:39:07.148Z,0.70
2023-05-25T12:41:54.852Z,0.65
2023-05-25T12:44:47.822Z,1.00
2023-05-25T12:47:17.309Z,0.98
2023-05-25T12:49:44.672Z,1.00
2023-05-25T12:52:11.714Z,2.45
2023-05-25T12:54:44.856Z,2.15
2023-05-25T12:57:12.392Z,1.50
2023-05-25T12:59:39.676Z,0.95
2023-05-25T13:02:07.425Z,0.60
2023-05-25T13:04:34.515Z,0.60
2023-05-25T13:07:01.590Z,1.60
2023-05-25T13:09:28.536Z,2.10
2023-05-25T13:11:55.751Z,1.10
2023-05-25T13:14:25.496Z,0.80
2023-05-25T13:16:52.465Z,0.40
2023-05-25T13:19:20.422Z,0.60
2023-05-25T13:21:49.269Z,0.88
2023-05-25T13:24:16.642Z,1.10
2023-05-25T13:26:45.383Z,0.88
2023-05-25T13:29:12.628Z,0.80
2023-05-25T13:31:39.076Z,0.40
2023-05-25T13:34:05.746Z,1.00
2023-05-25T13:36:34.944Z,0.63
2023-05-25T13:39:01.861Z,0.80
2023-05-25T13:41:28.400Z,0.50
2023-05-25T13:43:54.778Z,0.50
2023-05-25T13:46:33.367Z,1.00
2023-05-25T13:49:01.366Z,1.60
2023-05-25T13:51:27.723Z,1.20
2023-05-25T13:53:54.136Z,0.93
2023-05-25T13:56:20.559Z,0.80
2023-05-25T13:58:46.990Z,0.60
2023-05-25T14:01:13.603Z,0.30
2023-05-25T14:03:40.190Z,0.50
2023-05-25T14:06:06.767Z,0.80
2023-05-25T14:08:33.186Z,0.35
2023-05-25T14:10:59.666Z,0.45
2023-05-25T14:13:26.174Z,0.32
2023-05-25T14:15:52.633Z,0.50
2023-05-25T14:18:19.383Z,0.30
2023-05-25T14:20:46.052Z,0.40
2023-05-25T14:23:15.059Z,0.47
2023-05-25T14:25:43.399Z,1.60
2023-05-25T14:28:09.967Z,2.00
2023-05-25T14:30:36.426Z,1.40
2023-05-25T14:33:02.965Z,1.55
2023-05-25T14:35:29.378Z,1.00
2023-05-25T14:37:55.800Z,0.52
2023-05-25T14:40:22.163Z,0.47
2023-05-25T14:42:48.872Z,0.80
2023-05-25T14:45:16.270Z,0.50
2023-05-25T14:47:43.041Z,0.50
2023-05-25T14:50:09.602Z,0.60
2023-05-25T14:52:37.324Z,0.40
2023-05-25T14:55:03.760Z,0.40
2023-05-25T14:57:30.299Z,0.45
2023-05-25T14:59:57.033Z,0.57
2023-05-25T15:02:23.480Z,0.32
2023-05-25T15:04:50.049Z,0.30
2023-05-25T15:07:16.398Z,0.25
2023-05-25T15:09:43.319Z,0.35
2023-05-25T15:12:09.760Z,0.30
2023-05-25T15:14:39.953Z,0.40
2023-05-25T15:17:07.002Z,0.70
2023-05-25T15:19:33.405Z,1.15
2023-05-25T15:21:59.880Z,1.60
2023-05-25T15:24:26.420Z,1.13
2023-05-25T15:26:52.815Z,1.10
2023-05-25T15:29:19.286Z,0.65
2023-05-25T15:31:45.807Z,0.70
2023-05-25T15:34:12.337Z,1.02
2023-05-25T15:36:38.776Z,0.80
2023-05-25T15:39:06.180Z,0.50
2023-05-25T15:41:32.711Z,0.30
2023-05-25T15:44:01.094Z,0.20
2023-05-25T15:46:27.945Z,0.20
2023-05-25T15:48:54.438Z,0.38
2023-05-25T15:51:21.182Z,0.35
2023-05-25T15:53:47.625Z,0.17
2023-05-25T15:56:14.019Z,0.30
2023-05-25T15:58:40.398Z,0.35
2023-05-25T16:01:06.833Z,0.50
2023-05-25T16:03:33.272Z,0.50
2023-05-25T16:05:59.848Z,0.60
2023-05-25T16:08:26.271Z,0.73
2023-05-25T16:10:52.652Z,0.47
2023-05-25T16:13:19.010Z,0.85
2023-05-25T16:15:46.646Z,0.68
2023-05-25T16:18:13.234Z,0.82
2023-05-25T16:20:39.778Z,0.95
2023-05-25T16:23:06.492Z,1.15
2023-05-25T16:25:32.858Z,0.70
2023-05-25T16:27:59.232Z,0.70
2023-05-25T16:30:25.720Z,0.70
2023-05-25T16:32:52.118Z,0.80
2023-05-25T16:35:18.603Z,0.90
2023-05-25T16:37:45.563Z,1.10
2023-05-25T16:40:12.161Z,0.90
2023-05-25T16:42:38.573Z,0.73
2023-05-25T16:45:05.348Z,1.00
2023-05-25T16:47:31.825Z,1.20
2023-05-25T16:49:58.307Z,1.70
2023-05-25T16:52:24.854Z,1.35
2023-05-25T16:54:51.178Z,1.10
2023-05-25T16:57:17.588Z,1.33
2023-05-25T16:59:44.050Z,1.42
2023-05-25T17:02:10.455Z,1.02
2023-05-25T17:04:36.975Z,1.10
2023-05-25T17:07:03.390Z,1.50
2023-05-25T17:09:29.732Z,1.52
2023-05-25T17:11:59.531Z,1.10
2023-05-25T17:14:26.151Z,1.60
2023-05-25T17:16:52.755Z,1.70
2023-05-25T17:19:19.120Z,1.17
2023-05-25T17:21:45.503Z,0.80
2023-05-25T17:24:12.183Z,0.77
2023-05-25T17:26:38.518Z,1.50
2023-05-25T17:29:06.112Z,0.98
2023-05-25T17:31:33.103Z,0.90
2023-05-25T17:33:59.583Z,1.05
2023-05-25T17:36:26.078Z,1.63
2023-05-25T17:38:52.857Z,0.90
2023-05-25T17:41:19.317Z,0.80
2023-05-25T17:43:46.393Z,0.80
2023-05-25T17:46:12.872Z,1.00
2023-05-25T17:48:39.424Z,1.00
2023-05-25T17:51:06.062Z,1.30
2023-05-25T17:53:32.444Z,0.90
2023-05-25T17:55:59.285Z,0.90
2023-05-25T17:58:25.890Z,1.13
2023-05-25T18:00:52.371Z,0.93
2023-05-25T18:03:19.012Z,0.95
2023-05-25T18:05:45.835Z,0.90
2023-05-25T18:08:12.626Z,1.00
2023-05-25T18:10:38.979Z,0.82
2023-05-25T18:13:05.527Z,0.80
2023-05-25T18:15:32.055Z,0.70
2023-05-25T18:17:58.655Z,0.70
2023-05-25T18:20:25.194Z,0.77
2023-05-25T18:22:52.155Z,0.77
2023-05-25T18:25:18.530Z,1.08
2023-05-25T18:27:45.009Z,1.08
2023-05-25T18:30:11.655Z,0.80
2023-05-25T18:32:38.294Z,0.63
2023-05-25T18:35:05.002Z,0.57
2023-05-25T18:37:34.216Z,0.40
2023-05-25T18:40:00.844Z,0.47
2023-05-25T18:42:27.313Z,0.68
2023-05-25T18:44:53.886Z,0.70
2023-05-25T18:47:20.362Z,0.60
2023-05-25T18:49:47.223Z,0.70
2023-05-25T18:52:13.955Z,0.93
2023-05-25T18:54:40.474Z,0.70
2023-05-25T18:57:07.255Z,0.85
2023-05-25T18:59:33.889Z,0.68
2023-05-25T19:02:01.367Z,0.60
2023-05-25T19:04:27.949Z,0.88
2023-05-25T19:06:54.331Z,0.70
2023-05-25T19:09:20.795Z,1.00
2023-05-25T19:11:47.142Z,0.57
2023-05-25T19:14:13.527Z,0.30
2023-05-25T19:16:40.065Z,0.40
2023-05-25T19:19:06.570Z,0.70
2023-05-25T19:21:33.267Z,0.70
2023-05-25T19:23:59.646Z,0.52
2023-05-25T19:26:26.038Z,0.30
2023-05-25T19:28:52.551Z,0.55
2023-05-25T19:31:21.451Z,0.50
2023-05-25T19:33:47.845Z,0.60
2023-05-25T19:36:14.262Z,0.88
2023-05-25T19:38:42.171Z,0.63
2023-05-25T19:41:09.042Z,0.50
2023-05-25T19:43:36.149Z,0.57
2023-05-25T19:46:02.791Z,0.60
2023-05-25T19:48:29.543Z,0.30
2023-05-25T19:50:55.897Z,0.50
2023-05-25T19:53:22.314Z,1.00
2023-05-25T19:55:48.894Z,0.40
2023-05-25T19:58:15.287Z,0.35
2023-05-25T20:00:41.695Z,0.80
2023-05-25T20:03:08.254Z,0.75
2023-05-25T20:05:34.664Z,0.50
2023-05-25T20:08:01.189Z,0.40
2023-05-25T20:10:27.630Z,0.40
2023-05-25T20:12:53.958Z,0.30
2023-05-25T20:15:20.970Z,0.50
2023-05-25T20:17:47.371Z,0.40
2023-05-25T20:20:13.848Z,0.40
2023-05-25T20:22:41.031Z,0.50
2023-05-25T20:25:07.518Z,0.30
2023-05-25T20:27:33.900Z,0.47
2023-05-25T20:30:00.262Z,0.50
2023-05-25T20:32:26.653Z,0.30
2023-05-25T20:34:53.075Z,0.30
2023-05-25T20:37:19.512Z,0.43
2023-05-25T20:39:45.962Z,0.40
2023-05-25T20:42:13.974Z,0.40
2023-05-25T20:44:40.479Z,0.47
2023-05-25T20:47:06.954Z,0.43
2023-05-25T20:49:33.349Z,0.60
2023-05-25T20:51:59.796Z,0.40
2023-05-25T20:54:26.337Z,0.55
2023-05-25T20:56:53.384Z,0.47
2023-05-25T20:59:19.796Z,0.65
2023-05-25T21:01:46.362Z,0.50
2023-05-25T21:04:13.046Z,0.40
2023-05-25T21:06:39.740Z,0.60
2023-05-25T21:09:06.151Z,0.75
2023-05-25T21:11:32.599Z,0.40
2023-05-25T21:13:58.938Z,0.40
2023-05-25T21:16:25.702Z,0.60
2023-05-25T21:18:52.047Z,0.45
2023-05-25T21:21:18.423Z,0.63
2023-05-25T21:23:44.864Z,0.60
2023-05-25T21:26:11.509Z,0.40
2023-05-25T21:28:38.033Z,0.50
2023-05-25T21:31:04.407Z,0.35
2023-05-25T21:33:35.606Z,0.50
2023-05-25T21:36:02.639Z,0.40
2023-05-25T21:38:29.087Z,0.40
2023-05-25T21:40:55.621Z,0.40
2023-05-25T21:43:22.114Z,0.30
2023-05-25T21:45:48.470Z,0.30
2023-05-25T21:48:14.935Z,0.20
2023-05-25T21:50:41.677Z,0.30
2023-05-25T21:53:08.103Z,0.20
2023-05-25T21:55:34.498Z,0.20
2023-05-25T21:58:00.991Z,0.20
2023-05-25T22:00:27.354Z,0.30
2023-05-25T22:02:53.877Z,0.20
2023-05-25T22:05:20.505Z,0.20
2023-05-25T22:07:47.186Z,0.30
2023-05-25T22:10:13.582Z,0.20
2023-05-25T22:12:40.029Z,0.25
2023-05-25T22:15:07.022Z,0.25
2023-05-25T22:17:33.558Z,0.10
2023-05-25T22:22:32.756Z,0.30
2023-05-25T22:24:59.200Z,0.20
2023-05-25T22:27:26.180Z,0.40
2023-05-25T22:29:52.604Z,0.20
2023-05-25T22:32:18.988Z,0.20
2023-05-25T22:34:45.414Z,0.30
2023-05-25T22:37:11.978Z,0.28
2023-05-25T22:39:38.367Z,0.22
2023-05-25T22:42:04.906Z,0.30
2023-05-25T22:44:31.328Z,0.15
2023-05-25T22:46:57.740Z,0.20
2023-05-25T22:49:24.262Z,0.40
2023-05-25T22:51:50.850Z,0.30
2023-05-25T22:54:19.315Z,0.30
2023-05-25T22:56:45.883Z,0.60
2023-05-25T22:59:13.117Z,0.30
2023-05-25T23:01:39.475Z,0.20
2023-05-25T23:04:06.141Z,0.20
2023-05-25T23:06:32.731Z,0.20
2023-05-25T23:08:59.103Z,0.10
2023-05-25T23:11:27.056Z,0.17
2023-05-25T23:13:54.742Z,0.17
2023-05-25T23:16:21.281Z,0.20
2023-05-25T23:18:47.901Z,0.10
2023-05-25T23:21:14.244Z,0.20
2023-05-25T23:23:40.819Z,0.20
2023-05-25T23:26:07.254Z,0.30
2023-05-25T23:28:33.688Z,0.50
2023-05-25T23:31:00.124Z,0.35
2023-05-25T23:33:26.519Z,0.50
2023-05-25T23:35:52.850Z,0.30
2023-05-25T23:38:19.268Z,0.30
2023-05-25T23:40:45.902Z,0.30
2023-05-25T23:43:12.876Z,0.20
2023-05-25T23:45:39.598Z,0.20
2023-05-25T23:48:06.068Z,0.30
2023-05-25T23:50:32.463Z,0.20
2023-05-25T23:52:58.811Z,0.20
2023-05-25T23:55:25.176Z,0.20
2023-05-25T23:57:51.625Z,0.10
